Time;durP1;ratioP1;P1;durP2;ratioP2;P2;SDS_P1;SDS_P2;PMS_P1;PMS_P2;Temp;Humidity;BMP_temperature;BMP_pressure;BME280_temperature;BME280_humidity;BME280_pressure;Samples;Min_cycle;Max_cycle;Signal;HPM_P1;HPM_P2
2022/04/27 00:00:26;;;;;;;9.40;4.87;;;6.80;99.90;;;;;;5127335;27;20449;-68
2022/04/27 00:02:51;;;;;;;14.50;6.33;;;6.80;99.90;;;;;;5129220;27;20203;-69
2022/04/27 00:05:18;;;;;;;12.00;5.93;;;6.80;99.90;;;;;;5127144;27;20447;-68
2022/04/27 00:07:43;;;;;;;12.87;6.17;;;6.80;99.90;;;;;;5127575;27;20183;-69
2022/04/27 00:10:10;;;;;;;11.57;6.43;;;6.80;99.90;;;;;;5124086;27;20417;-68
2022/04/27 00:12:36;;;;;;;13.97;6.93;;;6.80;99.90;;;;;;5126813;27;20201;-69
2022/04/27 00:15:04;;;;;;;14.83;7.17;;;6.80;99.90;;;;;;5128009;27;20412;-69
2022/04/27 00:17:29;;;;;;;13.07;5.93;;;6.80;99.90;;;;;;5128682;27;20420;-69
2022/04/27 00:19:55;;;;;;;13.30;6.60;;;6.80;99.90;;;;;;5125937;27;20867;-68
2022/04/27 00:22:21;;;;;;;11.27;6.27;;;6.80;99.90;;;;;;5125190;27;20175;-68
2022/04/27 00:24:46;;;;;;;12.83;7.10;;;6.80;99.90;;;;;;5126709;27;21204;-69
2022/04/27 00:27:12;;;;;;;13.63;6.33;;;6.80;99.90;;;;;;5118619;27;20175;-69
2022/04/27 00:29:37;;;;;;;10.87;6.13;;;6.80;99.90;;;;;;5127406;27;20183;-69
2022/04/27 00:32:03;;;;;;;10.80;6.70;;;6.80;99.90;;;;;;5128279;27;20186;-69
2022/04/27 00:34:29;;;;;;;14.33;7.63;;;6.80;99.90;;;;;;5121538;27;20170;-68
2022/04/27 00:36:55;;;;;;;13.10;6.40;;;6.80;99.90;;;;;;5124792;27;20467;-68
2022/04/27 00:39:20;;;;;;;13.47;6.43;;;6.80;99.90;;;;;;5120445;27;20175;-69
2022/04/27 00:42:02;;;;;;;12.03;7.00;;;6.80;99.90;;;;;;5122158;27;20199;-68
2022/04/27 00:44:28;;;;;;;17.03;8.70;;;6.80;99.90;;;;;;5127833;27;20183;-69
2022/04/27 00:46:53;;;;;;;14.33;7.97;;;6.80;99.90;;;;;;5125151;27;20409;-68
2022/04/27 00:49:19;;;;;;;17.40;8.40;;;6.80;99.90;;;;;;5122442;27;20186;-69
2022/04/27 00:51:45;;;;;;;19.87;9.70;;;6.80;99.90;;;;;;5122173;27;20647;-68
2022/04/27 00:54:11;;;;;;;19.83;10.20;;;6.80;99.90;;;;;;5126842;27;20222;-68
2022/04/27 00:56:39;;;;;;;16.37;9.17;;;6.70;99.90;;;;;;5127494;27;20178;-68
2022/04/27 00:59:05;;;;;;;16.57;8.10;;;6.70;99.90;;;;;;5122127;27;20425;-68
2022/04/27 01:01:31;;;;;;;19.33;9.67;;;6.80;99.90;;;;;;5123182;28;20907;-68
2022/04/27 01:03:57;;;;;;;18.77;8.87;;;6.70;99.90;;;;;;5125072;28;20336;-69
2022/04/27 01:06:23;;;;;;;18.80;9.53;;;6.70;99.90;;;;;;5123355;28;20218;-69
2022/04/27 01:08:49;;;;;;;14.63;7.83;;;6.70;99.90;;;;;;5117948;28;20463;-69
2022/04/27 01:11:15;;;;;;;18.63;8.83;;;6.70;99.90;;;;;;5120500;28;20408;-68
2022/04/27 01:13:41;;;;;;;19.23;8.70;;;6.70;99.90;;;;;;5127213;28;21060;-69
2022/04/27 01:16:07;;;;;;;17.67;8.83;;;6.70;99.90;;;;;;5121528;28;20416;-69
2022/04/27 01:18:33;;;;;;;16.47;9.50;;;6.70;99.90;;;;;;5121849;28;20183;-68
2022/04/27 01:20:59;;;;;;;16.73;9.07;;;6.60;99.90;;;;;;5127464;28;21062;-68
2022/04/27 01:23:24;;;;;;;19.43;10.90;;;6.70;99.90;;;;;;5099263;28;21236;-69
2022/04/27 01:25:56;;;;;;;16.80;8.97;;;6.60;99.90;;;;;;5118790;28;20420;-69
2022/04/27 01:28:24;;;;;;;17.87;9.60;;;6.60;99.90;;;;;;5120838;28;20244;-69
2022/04/27 01:31:07;;;;;;;19.73;9.60;;;6.60;99.90;;;;;;5127295;28;20416;-68
2022/04/27 01:33:36;;;;;;;19.87;9.60;;;6.60;99.90;;;;;;5127296;28;20470;-68
2022/04/27 01:36:04;;;;;;;20.03;9.10;;;6.70;99.90;;;;;;5124833;28;20547;-68
2022/04/27 01:38:40;;;;;;;16.70;8.60;;;6.60;99.90;;;;;;5127155;28;20424;-68
2022/04/27 01:41:06;;;;;;;20.73;10.83;;;6.70;99.90;;;;;;5124391;28;20460;-69
2022/04/27 01:43:33;;;;;;;24.80;10.13;;;6.70;99.90;;;;;;5121509;28;20417;-69
2022/04/27 01:46:00;;;;;;;24.83;11.90;;;6.70;99.90;;;;;;5126852;28;20444;-68
2022/04/27 01:48:26;;;;;;;24.67;11.97;;;6.70;99.90;;;;;;5127394;28;20924;-68
2022/04/27 01:50:52;;;;;;;24.70;10.90;;;6.70;99.90;;;;;;5106974;27;20459;-68
2022/04/27 01:56:03;;;;;;;20.43;11.90;;;6.70;99.90;;;;;;5131153;27;20182;-68
2022/04/27 01:58:29;;;;;;;26.53;12.40;;;6.70;99.90;;;;;;5127955;27;20566;-68
2022/04/27 02:00:54;;;;;;;22.63;11.50;;;6.70;99.90;;;;;;5130578;27;20467;-68
2022/04/27 02:03:21;;;;;;;27.93;12.80;;;6.80;99.90;;;;;;5127681;27;20428;-69
2022/04/27 02:05:48;;;;;;;29.30;14.20;;;6.70;99.90;;;;;;5126865;27;20656;-68
2022/04/27 02:08:14;;;;;;;25.30;12.40;;;6.80;99.90;;;;;;5124538;27;20505;-68
2022/04/27 02:10:41;;;;;;;22.97;10.40;;;6.80;99.90;;;;;;5121195;27;20436;-68
2022/04/27 02:13:08;;;;;;;24.67;9.90;;;6.80;99.90;;;;;;5127885;27;20469;-68
2022/04/27 02:15:34;;;;;;;28.23;12.43;;;6.80;99.90;;;;;;5130935;27;20451;-69
2022/04/27 02:18:00;;;;;;;31.77;14.13;;;6.80;99.90;;;;;;5130799;27;20421;-68
2022/04/27 02:20:26;;;;;;;24.70;12.70;;;6.80;99.90;;;;;;5129937;27;20464;-68
2022/04/27 02:22:52;;;;;;;21.23;11.00;;;6.80;99.90;;;;;;5130527;27;20424;-69
2022/04/27 02:25:19;;;;;;;31.53;14.03;;;6.80;99.90;;;;;;5129841;27;20648;-68
2022/04/27 02:27:45;;;;;;;29.47;13.43;;;6.80;99.90;;;;;;5129125;27;20420;-68
2022/04/27 02:30:12;;;;;;;22.57;11.53;;;6.90;99.90;;;;;;5130091;27;20416;-69
2022/04/27 02:32:39;;;;;;;26.27;12.07;;;6.90;99.90;;;;;;5127856;27;20498;-68
2022/04/27 02:35:06;;;;;;;27.43;13.63;;;6.90;99.90;;;;;;5130127;27;20519;-68
2022/04/27 02:37:32;;;;;;;27.10;12.43;;;6.80;99.90;;;;;;5130974;27;20443;-68
2022/04/27 02:39:59;;;;;;;24.70;13.30;;;6.80;99.90;;;;;;5118809;27;20461;-69
2022/04/27 02:42:25;;;;;;;23.10;12.40;;;6.80;99.90;;;;;;5128179;27;20416;-69
2022/04/27 02:44:51;;;;;;;24.87;13.10;;;6.80;99.90;;;;;;5125128;27;20401;-68
2022/04/27 02:47:18;;;;;;;26.33;12.07;;;6.90;99.90;;;;;;5129954;27;20416;-69
2022/04/27 02:52:31;;;;;;;31.70;14.10;;;6.90;99.90;;;;;;5125738;27;20427;-68
2022/04/27 02:54:57;;;;;;;23.10;11.80;;;6.90;99.90;;;;;;5130239;27;20861;-68
2022/04/27 02:57:23;;;;;;;30.87;14.20;;;6.80;99.90;;;;;;5130346;27;20175;-68
2022/04/27 02:59:49;;;;;;;26.57;13.10;;;6.90;99.90;;;;;;5130081;27;20201;-68
2022/04/27 03:02:14;;;;;;;27.77;12.20;;;6.80;99.90;;;;;;5129167;27;20413;-68
2022/04/27 03:04:41;;;;;;;24.20;12.83;;;6.80;99.90;;;;;;5130455;27;20408;-68
2022/04/27 03:07:07;;;;;;;29.00;13.57;;;6.80;99.90;;;;;;5127312;27;20229;-68
2022/04/27 03:09:33;;;;;;;30.07;13.13;;;6.90;99.90;;;;;;5120397;27;21070;-68
2022/04/27 03:11:59;;;;;;;33.97;13.60;;;6.90;99.90;;;;;;5124886;27;20447;-69
2022/04/27 03:14:25;;;;;;;32.23;14.20;;;6.90;99.90;;;;;;5126978;27;20463;-68
2022/04/27 03:16:54;;;;;;;30.60;13.53;;;6.90;99.90;;;;;;5114687;27;20409;-68
2022/04/27 03:19:20;;;;;;;25.70;13.90;;;6.90;99.90;;;;;;5128946;27;20175;-69
2022/04/27 03:21:46;;;;;;;26.23;12.77;;;6.90;99.90;;;;;;5128291;27;20963;-68
2022/04/27 03:24:11;;;;;;;28.63;13.50;;;6.90;99.90;;;;;;5129491;27;20271;-68
2022/04/27 03:26:37;;;;;;;26.33;12.93;;;7.00;99.90;;;;;;5128224;27;20409;-69
2022/04/27 03:29:05;;;;;;;32.47;15.10;;;7.00;99.90;;;;;;5129275;27;20182;-68
2022/04/27 03:31:32;;;;;;;30.93;13.73;;;6.90;99.90;;;;;;5107717;27;20257;-68
2022/04/27 03:33:58;;;;;;;33.10;13.20;;;6.90;99.90;;;;;;5129368;27;20428;-68
2022/04/27 03:36:24;;;;;;;27.83;11.50;;;6.90;99.90;;;;;;5128999;27;20436;-68
2022/04/27 03:38:50;;;;;;;29.03;13.70;;;6.90;99.90;;;;;;5126945;27;20452;-68
2022/04/27 03:41:22;;;;;;;31.40;14.97;;;7.00;99.90;;;;;;5126374;27;20992;-69
2022/04/27 03:43:49;;;;;;;24.40;12.17;;;7.00;99.90;;;;;;5128735;27;20175;-68
2022/04/27 03:46:15;;;;;;;31.33;12.57;;;7.00;99.90;;;;;;5104330;27;20433;-69
2022/04/27 03:48:41;;;;;;;28.90;12.93;;;7.00;99.90;;;;;;5125463;27;20431;-68
2022/04/27 03:51:07;;;;;;;25.87;11.57;;;7.00;99.90;;;;;;5120981;27;20184;-68
2022/04/27 03:53:33;;;;;;;24.83;12.07;;;7.00;99.90;;;;;;5114829;27;20180;-68
2022/04/27 03:55:58;;;;;;;22.53;12.13;;;7.00;99.90;;;;;;5101860;28;20482;-68
2022/04/27 03:58:24;;;;;;;26.70;11.60;;;7.00;99.90;;;;;;5120948;27;20493;-68
2022/04/27 04:00:50;;;;;;;25.47;10.37;;;7.00;99.90;;;;;;5122184;27;20253;-68
2022/04/27 04:03:15;;;;;;;27.30;11.97;;;7.00;99.90;;;;;;5127674;27;20286;-67
2022/04/27 04:05:41;;;;;;;26.07;11.83;;;7.00;99.90;;;;;;5124290;27;20636;-68
2022/04/27 04:08:07;;;;;;;22.13;10.43;;;7.00;99.90;;;;;;5118348;27;20227;-68
2022/04/27 04:10:33;;;;;;;18.83;10.53;;;7.10;99.90;;;;;;5125855;27;20421;-69
2022/04/27 04:12:59;;;;;;;26.37;12.30;;;7.10;99.90;;;;;;5117164;27;20201;-69
2022/04/27 04:15:25;;;;;;;27.20;11.33;;;7.10;99.90;;;;;;5119559;27;20427;-68
2022/04/27 04:17:50;;;;;;;27.30;11.90;;;7.10;99.90;;;;;;5095850;27;20198;-69
2022/04/27 04:20:17;;;;;;;25.07;12.93;;;7.20;99.90;;;;;;5108214;27;20207;-69
2022/04/27 04:22:44;;;;;;;22.57;12.43;;;7.20;99.90;;;;;;5119672;27;20205;-69
2022/04/27 04:30:40;;;;;;;28.33;11.60;;;7.20;99.90;;;;;;5116033;27;20424;-69
2022/04/27 04:33:06;;;;;;;22.47;11.17;;;7.20;99.90;;;;;;5119848;27;20424;-69
2022/04/27 04:35:31;;;;;;;24.90;12.77;;;7.20;99.90;;;;;;5123567;27;20262;-69
2022/04/27 04:37:57;;;;;;;36.93;11.00;;;7.10;99.90;;;;;;5125833;27;21213;-69
2022/04/27 04:40:23;;;;;;;25.27;11.63;;;7.10;99.90;;;;;;5113387;27;20216;-69
2022/04/27 04:42:48;;;;;;;26.13;11.63;;;7.10;99.90;;;;;;5088366;28;20184;-69
2022/04/27 04:45:14;;;;;;;22.30;10.87;;;7.20;99.90;;;;;;5099096;27;20199;-69
2022/04/27 04:47:42;;;;;;;21.40;11.40;;;7.20;99.90;;;;;;5103421;27;20187;-69
2022/04/27 04:50:08;;;;;;;31.90;12.20;;;7.20;99.90;;;;;;5114216;27;20429;-69
2022/04/27 04:52:34;;;;;;;24.27;12.30;;;7.20;99.90;;;;;;5117565;27;21173;-69
2022/04/27 04:55:00;;;;;;;25.93;12.57;;;7.20;99.90;;;;;;5116751;27;20443;-69
2022/04/27 04:57:25;;;;;;;26.87;12.50;;;7.20;99.90;;;;;;5122410;27;20191;-69
2022/04/27 04:59:51;;;;;;;28.03;13.30;;;7.20;99.90;;;;;;5108980;27;20279;-70
2022/04/27 05:02:17;;;;;;;22.93;11.97;;;7.30;99.90;;;;;;5118755;28;20175;-70
2022/04/27 05:04:42;;;;;;;26.47;12.20;;;7.20;99.90;;;;;;5126046;28;20187;-70
2022/04/27 05:07:08;;;;;;;23.10;10.87;;;7.30;99.90;;;;;;5109033;28;20184;-69
2022/04/27 05:09:34;;;;;;;26.23;12.50;;;7.20;99.90;;;;;;5106444;28;20216;-66
2022/04/27 05:11:59;;;;;;;26.00;10.10;;;7.20;99.90;;;;;;5110741;28;20186;-69
2022/04/27 05:14:25;;;;;;;23.87;11.13;;;7.20;99.90;;;;;;5113143;28;20188;-69
2022/04/27 05:16:50;;;;;;;21.60;11.57;;;7.20;99.90;;;;;;5114478;28;20179;-68
2022/04/27 05:19:16;;;;;;;22.17;10.97;;;7.20;99.90;;;;;;5106807;28;20198;-68
2022/04/27 05:21:42;;;;;;;25.80;11.00;;;7.30;99.90;;;;;;5103885;28;20608;-69
2022/04/27 05:24:07;;;;;;;23.73;9.83;;;7.20;99.90;;;;;;5114149;27;20172;-68
2022/04/27 05:26:33;;;;;;;25.60;10.70;;;7.20;99.90;;;;;;5112866;27;20183;-69
2022/04/27 05:31:55;;;;;;;26.80;10.50;;;7.30;99.90;;;;;;5108395;27;20568;-68
2022/04/27 05:34:25;;;;;;;20.37;10.83;;;7.40;99.90;;;;;;5119100;27;20470;-69
2022/04/27 05:36:51;;;;;;;22.47;11.53;;;7.40;99.90;;;;;;5119684;27;20772;-69
2022/04/27 05:39:21;;;;;;;27.03;10.83;;;7.50;99.90;;;;;;5127745;27;20412;-69
2022/04/27 05:41:49;;;;;;;17.10;9.67;;;7.50;99.90;;;;;;5121736;27;20471;-69
2022/04/27 05:44:22;;;;;;;25.50;10.40;;;7.50;99.90;;;;;;5120214;27;20470;-69
2022/04/27 05:46:55;;;;;;;20.00;8.67;;;7.50;99.90;;;;;;5126456;27;20518;-67
2022/04/27 05:49:21;;;;;;;20.43;10.23;;;7.50;99.90;;;;;;5114987;27;20434;-69
2022/04/27 05:51:47;;;;;;;18.93;10.43;;;7.60;99.90;;;;;;5110881;27;20435;-69
2022/04/27 05:54:14;;;;;;;23.37;10.57;;;7.60;99.90;;;;;;5121669;27;20485;-69
2022/04/27 05:56:40;;;;;;;20.37;10.07;;;7.60;99.90;;;;;;5121354;27;20493;-68
2022/04/27 05:59:10;;;;;;;23.93;9.83;;;7.60;99.90;;;;;;5124888;27;20539;-69
2022/04/27 06:01:36;;;;;;;20.97;10.60;;;7.60;99.90;;;;;;5122258;27;20860;-68
2022/04/27 06:04:02;;;;;;;26.33;9.70;;;7.60;99.90;;;;;;5110342;27;20429;-69
2022/04/27 06:06:27;;;;;;;19.40;9.40;;;7.60;99.90;;;;;;5123111;27;20415;-69
2022/04/27 06:08:53;;;;;;;22.23;10.47;;;7.60;99.90;;;;;;5114418;27;20192;-69
2022/04/27 06:11:22;;;;;;;21.13;10.00;;;7.60;99.90;;;;;;5126947;27;20228;-69
2022/04/27 06:13:48;;;;;;;18.57;9.83;;;7.70;99.90;;;;;;5118575;27;20703;-68
2022/04/27 06:16:15;;;;;;;20.30;9.20;;;7.70;99.90;;;;;;5112983;27;20524;-70
2022/04/27 06:18:41;;;;;;;22.77;10.10;;;7.70;99.90;;;;;;5125009;27;20197;-68
2022/04/27 06:21:10;;;;;;;22.40;11.67;;;7.70;99.90;;;;;;5103935;27;20568;-67
2022/04/27 06:23:38;;;;;;;18.17;9.03;;;7.80;99.90;;;;;;5119958;27;20416;-68
2022/04/27 06:26:05;;;;;;;20.00;9.30;;;7.80;99.90;;;;;;5126498;27;20413;-68
2022/04/27 06:28:32;;;;;;;16.37;10.03;;;7.80;99.90;;;;;;5122475;27;20511;-69
2022/04/27 06:30:57;;;;;;;25.03;10.00;;;7.90;99.90;;;;;;5117396;27;20429;-69
2022/04/27 06:33:23;;;;;;;21.70;11.30;;;7.90;99.90;;;;;;5125681;27;20888;-68
2022/04/27 06:35:50;;;;;;;20.03;10.30;;;7.90;99.90;;;;;;5112478;27;20930;-68
2022/04/27 06:38:16;;;;;;;24.07;9.63;;;7.90;99.90;;;;;;5126756;27;20368;-68
2022/04/27 06:40:42;;;;;;;23.00;9.07;;;7.90;99.90;;;;;;5125642;27;20538;-69
2022/04/27 06:43:07;;;;;;;17.73;9.07;;;7.90;99.90;;;;;;5125986;27;20939;-69
2022/04/27 06:45:36;;;;;;;14.40;9.07;;;8.00;99.90;;;;;;5125028;27;20646;-69
2022/04/27 06:48:03;;;;;;;18.60;8.83;;;7.90;99.90;;;;;;5123235;27;20179;-68
2022/04/27 06:50:28;;;;;;;16.73;8.10;;;7.90;99.90;;;;;;5112259;27;20517;-68
2022/04/27 06:52:55;;;;;;;22.37;8.90;;;7.90;99.90;;;;;;5125500;27;20529;-69
2022/04/27 06:55:21;;;;;;;16.80;8.60;;;7.90;99.90;;;;;;5117944;27;20216;-69
2022/04/27 06:57:46;;;;;;;19.40;9.80;;;8.00;99.90;;;;;;5115904;27;20438;-69
2022/04/27 07:00:12;;;;;;;15.47;8.33;;;8.00;99.90;;;;;;5115665;27;20203;-68
2022/04/27 07:02:39;;;;;;;19.83;9.00;;;8.00;99.90;;;;;;5112811;27;20302;-68
2022/04/27 07:05:06;;;;;;;18.37;9.30;;;8.10;99.90;;;;;;5111852;27;20904;-68
2022/04/27 07:07:32;;;;;;;16.07;9.00;;;8.10;99.90;;;;;;5109052;27;20433;-69
2022/04/27 07:09:58;;;;;;;18.20;8.17;;;8.20;99.90;;;;;;5110851;27;20455;-68
2022/04/27 07:12:25;;;;;;;17.53;9.93;;;8.20;99.90;;;;;;5109732;27;20441;-69
2022/04/27 07:14:54;;;;;;;15.80;7.20;;;8.20;99.90;;;;;;5109520;27;20441;-69
2022/04/27 07:17:19;;;;;;;14.77;7.70;;;8.30;99.90;;;;;;5115865;27;20444;-69
2022/04/27 07:19:45;;;;;;;18.43;9.00;;;8.30;99.90;;;;;;5116316;27;20477;-68
2022/04/27 07:22:12;;;;;;;17.90;8.60;;;8.40;99.90;;;;;;5122856;27;20328;-68
2022/04/27 07:24:38;;;;;;;16.53;7.90;;;8.50;99.90;;;;;;5126057;27;20603;-69
2022/04/27 07:27:05;;;;;;;12.93;7.80;;;8.50;99.90;;;;;;5118183;27;20418;-69
2022/04/27 07:29:31;;;;;;;14.10;8.80;;;8.60;99.90;;;;;;5121657;27;20190;-69
2022/04/27 07:31:59;;;;;;;17.70;7.57;;;8.70;99.90;;;;;;5121094;27;20482;-69
2022/04/27 07:34:25;;;;;;;20.00;8.60;;;8.70;99.90;;;;;;5119085;27;20467;-69
2022/04/27 07:36:51;;;;;;;19.27;7.50;;;8.80;99.90;;;;;;5116281;27;20428;-69
2022/04/27 07:39:16;;;;;;;17.00;7.20;;;8.80;99.90;;;;;;5127142;27;20433;-69
2022/04/27 07:41:45;;;;;;;14.40;7.00;;;8.80;99.90;;;;;;5120091;27;20593;-69
2022/04/27 07:44:11;;;;;;;18.33;8.03;;;8.80;99.90;;;;;;5109798;27;20175;-69
2022/04/27 07:46:37;;;;;;;16.13;7.60;;;8.70;99.90;;;;;;5126294;27;20420;-70
2022/04/27 07:49:02;;;;;;;13.70;7.30;;;8.70;99.90;;;;;;5116188;27;20432;-69
2022/04/27 07:51:28;;;;;;;21.90;8.53;;;8.70;99.90;;;;;;5124300;27;20662;-69
2022/04/27 07:53:54;;;;;;;15.63;8.03;;;8.80;99.90;;;;;;5129429;27;20190;-69
2022/04/27 07:56:19;;;;;;;18.27;7.00;;;8.90;99.90;;;;;;5101192;27;20499;-69
2022/04/27 07:58:45;;;;;;;14.57;7.00;;;9.00;99.90;;;;;;5127646;27;20251;-69
2022/04/27 08:01:11;;;;;;;16.00;8.03;;;9.00;99.90;;;;;;5122244;27;20210;-69
2022/04/27 08:03:37;;;;;;;14.10;6.60;;;9.10;99.90;;;;;;5123367;27;20187;-69
2022/04/27 08:06:04;;;;;;;15.90;6.90;;;9.00;99.90;;;;;;5121641;27;20735;-69
2022/04/27 08:08:33;;;;;;;10.53;6.77;;;9.00;99.90;;;;;;5119263;27;20522;-69
2022/04/27 08:10:58;;;;;;;18.47;8.23;;;9.00;99.90;;;;;;5118919;27;20527;-69
2022/04/27 08:13:24;;;;;;;25.33;8.10;;;8.90;99.90;;;;;;5126494;27;20515;-69
2022/04/27 08:15:50;;;;;;;13.60;7.13;;;8.80;99.90;;;;;;5108933;27;20191;-69
2022/04/27 08:18:15;;;;;;;12.20;6.77;;;8.80;99.90;;;;;;5117010;27;20213;-69
2022/04/27 08:23:32;;;;;;;14.87;6.80;;;8.70;99.90;;;;;;5120582;27;20619;-69
2022/04/27 08:26:00;;;;;;;13.43;5.93;;;8.80;99.90;;;;;;5112793;27;20929;-69
2022/04/27 08:28:27;;;;;;;11.70;6.47;;;9.00;99.90;;;;;;5113541;27;20422;-69
2022/04/27 08:30:53;;;;;;;13.37;7.03;;;9.30;99.90;;;;;;5120085;27;20421;-69
2022/04/27 08:33:20;;;;;;;13.23;6.47;;;9.50;99.90;;;;;;5113133;27;20969;-69
2022/04/27 08:35:47;;;;;;;15.30;7.87;;;9.60;99.90;;;;;;5114568;27;20456;-69
2022/04/27 08:38:13;;;;;;;11.80;6.90;;;9.70;99.90;;;;;;5116890;27;20433;-69
2022/04/27 08:40:41;;;;;;;12.47;6.87;;;9.80;99.90;;;;;;5124153;27;20464;-69
2022/04/27 08:43:09;;;;;;;12.03;6.60;;;9.70;99.90;;;;;;5121077;27;20423;-69
2022/04/27 08:45:36;;;;;;;17.50;7.63;;;9.70;99.90;;;;;;5113580;27;21168;-70
2022/04/27 08:48:03;;;;;;;17.47;6.93;;;9.50;99.90;;;;;;5112428;27;20440;-69
2022/04/27 08:50:28;;;;;;;14.30;6.90;;;9.40;99.90;;;;;;5113641;27;20449;-69
2022/04/27 08:52:55;;;;;;;15.30;6.50;;;9.40;99.90;;;;;;5124718;27;20923;-69
2022/04/27 08:55:22;;;;;;;12.30;6.20;;;9.40;99.90;;;;;;5114567;27;20239;-69
2022/04/27 08:57:50;;;;;;;14.20;6.97;;;9.40;99.90;;;;;;5119949;27;20425;-69
2022/04/27 09:00:17;;;;;;;12.87;7.00;;;9.20;99.90;;;;;;5111162;27;20475;-69
2022/04/27 09:02:43;;;;;;;12.63;5.20;;;9.40;99.90;;;;;;5105377;28;20963;-69
2022/04/27 09:05:20;;;;;;;15.43;6.60;;;9.40;99.90;;;;;;5108305;28;20491;-70
2022/04/27 09:07:51;;;;;;;13.63;6.60;;;9.50;99.90;;;;;;5104726;28;20795;-69
2022/04/27 09:10:23;;;;;;;14.97;6.40;;;9.50;99.90;;;;;;5114256;28;20437;-69
2022/04/27 09:12:50;;;;;;;10.40;6.23;;;9.50;99.90;;;;;;5114973;28;20513;-70
2022/04/27 09:15:26;;;;;;;12.30;7.23;;;9.50;99.90;;;;;;5119154;28;20429;-69
2022/04/27 09:20:47;;;;;;;12.50;6.63;;;10.10;99.90;;;;;;5116789;28;20566;-69
2022/04/27 09:23:40;;;;;;;13.00;5.87;;;10.50;99.90;;;;;;5118527;28;20427;-70
2022/04/27 09:26:28;;;;;;;9.50;5.20;;;10.90;99.90;;;;;;5117255;28;20868;-69
2022/04/27 09:28:53;;;;;;;14.13;5.37;;;10.90;99.90;;;;;;5111560;28;20425;-69
2022/04/27 09:31:30;;;;;;;12.73;6.10;;;11.00;99.90;;;;;;5119268;28;20415;-69
2022/04/27 09:34:00;;;;;;;13.53;6.80;;;11.10;99.90;;;;;;5105581;28;20186;-69
2022/04/27 09:36:26;;;;;;;10.50;5.43;;;11.50;99.90;;;;;;5115614;28;20788;-69
2022/04/27 09:38:53;;;;;;;10.60;6.47;;;12.00;99.90;;;;;;5116480;28;20409;-69
2022/04/27 09:41:42;;;;;;;11.63;5.70;;;12.10;99.90;;;;;;5113699;28;20464;-69
2022/04/27 09:44:25;;;;;;;11.23;5.73;;;11.90;99.90;;;;;;5112207;28;20419;-69
2022/04/27 09:46:50;;;;;;;7.60;4.93;;;11.70;99.90;;;;;;5105844;28;20427;-70
2022/04/27 09:49:16;;;;;;;8.47;4.50;;;11.60;99.90;;;;;;5123261;28;20444;-69
2022/04/27 09:51:52;;;;;;;10.60;5.57;;;11.70;99.90;;;;;;5114945;28;20184;-69
2022/04/27 09:54:21;;;;;;;8.93;4.90;;;11.70;99.90;;;;;;5104743;28;20975;-69
2022/04/27 09:56:54;;;;;;;11.73;4.47;;;11.80;99.90;;;;;;5118425;28;20448;-70
2022/04/27 09:59:22;;;;;;;9.03;4.73;;;11.90;99.90;;;;;;5112276;28;20439;-70
2022/04/27 10:01:53;;;;;;;9.17;4.80;;;11.70;99.90;;;;;;5114362;28;20465;-69
2022/04/27 10:04:23;;;;;;;8.57;4.50;;;12.20;99.90;;;;;;5114899;28;20429;-70
2022/04/27 10:06:50;;;;;;;22.37;5.10;;;12.40;99.90;;;;;;5118347;28;20432;-69
2022/04/27 10:09:15;;;;;;;8.60;4.70;;;12.90;99.40;;;;;;5105977;28;20428;-69
2022/04/27 10:11:43;;;;;;;7.20;4.70;;;13.00;99.90;;;;;;5112672;27;20860;-69
2022/04/27 10:14:09;;;;;;;6.23;3.17;;;13.10;98.70;;;;;;5109725;27;20187;-69
2022/04/27 10:16:35;;;;;;;15.43;5.10;;;13.20;98.70;;;;;;5104680;27;20433;-69
2022/04/27 10:19:01;;;;;;;8.83;4.20;;;13.60;98.40;;;;;;5107416;27;20514;-69
2022/04/27 10:21:56;;;;;;;6.13;3.33;;;13.60;97.50;;;;;;5112280;27;20584;-69
2022/04/27 10:24:34;;;;;;;8.67;3.70;;;13.40;97.50;;;;;;5103886;27;20180;-69
2022/04/27 10:27:14;;;;;;;6.43;2.97;;;13.00;97.90;;;;;;5111586;27;20565;-69
2022/04/27 10:29:40;;;;;;;6.20;3.30;;;12.70;97.30;;;;;;5109721;27;20455;-69
2022/04/27 10:32:06;;;;;;;6.67;3.27;;;12.80;97.80;;;;;;5123699;27;20440;-69
2022/04/27 10:34:33;;;;;;;8.00;3.50;;;13.00;96.50;;;;;;5129402;27;21006;-69
2022/04/27 10:37:03;;;;;;;8.37;3.93;;;13.10;96.20;;;;;;5126397;27;20179;-70
2022/04/27 10:39:33;;;;;;;8.20;3.40;;;13.10;96.90;;;;;;5126642;27;20963;-68
2022/04/27 10:42:04;;;;;;;6.70;3.90;;;13.10;96.30;;;;;;5119696;27;20469;-68
2022/04/27 10:44:54;;;;;;;4.70;3.13;;;13.00;97.80;;;;;;5123106;27;20426;-68
2022/04/27 10:47:22;;;;;;;7.20;3.57;;;12.80;97.80;;;;;;5114933;27;20531;-68
2022/04/27 10:50:09;;;;;;;6.93;4.47;;;13.00;97.30;;;;;;5122117;27;20421;-68
2022/04/27 10:52:51;;;;;;;8.23;3.63;;;13.00;97.10;;;;;;5106156;27;20451;-70
2022/04/27 10:55:45;;;;;;;7.07;3.77;;;13.00;97.90;;;;;;5121564;27;20425;-69
2022/04/27 10:58:37;;;;;;;7.30;3.70;;;13.20;96.50;;;;;;5121088;27;20551;-68
2022/04/27 11:01:12;;;;;;;4.83;2.53;;;13.30;96.10;;;;;;5123178;27;20469;-69
2022/04/27 11:03:41;;;;;;;5.50;3.03;;;13.00;96.20;;;;;;5119243;27;20420;-69
2022/04/27 11:06:13;;;;;;;4.47;2.80;;;13.10;96.50;;;;;;5129468;27;20424;-69
2022/04/27 11:08:45;;;;;;;3.83;2.60;;;13.20;95.70;;;;;;5112478;27;20771;-69
2022/04/27 11:11:11;;;;;;;6.33;2.83;;;13.60;94.60;;;;;;5126563;27;20416;-69
2022/04/27 11:13:37;;;;;;;5.07;3.40;;;13.60;95.30;;;;;;5121295;27;20451;-69
2022/04/27 11:16:13;;;;;;;4.83;2.40;;;13.50;95.30;;;;;;5118279;27;20187;-69
2022/04/27 11:18:55;;;;;;;3.73;2.63;;;13.50;95.00;;;;;;5115343;27;20425;-68
2022/04/27 11:21:21;;;;;;;4.60;2.60;;;13.20;95.20;;;;;;5125259;27;21003;-68
2022/04/27 11:23:47;;;;;;;5.60;3.20;;;13.00;95.90;;;;;;5113079;27;20416;-69
2022/04/27 11:26:16;;;;;;;4.50;2.47;;;13.10;95.10;;;;;;5128955;27;20459;-68
2022/04/27 11:28:46;;;;;;;3.70;2.20;;;12.90;96.50;;;;;;5113075;27;20258;-68
2022/04/27 11:31:13;;;;;;;7.67;3.07;;;13.10;95.90;;;;;;5112859;27;20618;-68
2022/04/27 11:33:40;;;;;;;4.57;2.57;;;13.00;94.40;;;;;;5110025;27;20476;-68
2022/04/27 11:36:07;;;;;;;5.20;2.73;;;12.90;95.40;;;;;;5117822;27;20480;-69
2022/04/27 11:38:34;;;;;;;5.47;2.50;;;12.90;96.10;;;;;;5117701;27;20430;-69
2022/04/27 11:41:02;;;;;;;6.20;2.13;;;12.70;95.80;;;;;;5109041;27;21268;-68
2022/04/27 11:43:34;;;;;;;6.93;2.40;;;12.60;95.90;;;;;;5112704;27;20421;-66
2022/04/27 11:45:59;;;;;;;5.23;1.90;;;12.80;96.10;;;;;;5114897;27;20433;-68
2022/04/27 11:48:29;;;;;;;3.83;2.43;;;12.80;94.90;;;;;;5114300;27;20433;-68
2022/04/27 11:50:57;;;;;;;4.63;2.33;;;12.80;94.40;;;;;;5112015;27;20196;-68
2022/04/27 11:53:23;;;;;;;4.70;2.10;;;12.80;95.20;;;;;;5124271;27;20955;-68
2022/04/27 11:55:51;;;;;;;3.90;1.93;;;13.10;94.80;;;;;;5121917;27;20425;-69
2022/04/27 11:58:25;;;;;;;4.37;2.30;;;13.40;94.40;;;;;;5112206;27;20191;-68
2022/04/27 12:00:56;;;;;;;4.20;2.20;;;13.10;95.10;;;;;;5111529;27;20576;-68
2022/04/27 12:03:23;;;;;;;3.57;1.97;;;13.60;93.90;;;;;;5116956;27;20428;-68
2022/04/27 12:05:51;;;;;;;3.70;1.73;;;14.00;94.60;;;;;;5118675;27;20418;-68
2022/04/27 12:08:22;;;;;;;3.93;2.30;;;14.10;94.10;;;;;;5110869;27;20470;-69
2022/04/27 12:10:49;;;;;;;3.83;1.90;;;14.20;93.00;;;;;;5116478;27;20435;-69
2022/04/27 12:13:16;;;;;;;6.37;2.37;;;14.00;92.70;;;;;;5123420;27;20912;-69
2022/04/27 12:15:45;;;;;;;4.20;2.33;;;13.60;93.10;;;;;;5117163;27;20464;-70
2022/04/27 12:18:20;;;;;;;4.50;2.27;;;13.90;93.30;;;;;;5122901;27;20421;-70
2022/04/27 12:20:49;;;;;;;5.83;2.10;;;14.00;92.70;;;;;;5127545;27;20467;-70
2022/04/27 12:23:25;;;;;;;3.13;2.10;;;14.20;92.70;;;;;;5128328;27;20417;-69
2022/04/27 12:25:55;;;;;;;4.93;1.80;;;14.20;93.20;;;;;;5122415;27;20485;-69
2022/04/27 12:28:23;;;;;;;3.73;2.23;;;14.50;92.50;;;;;;5125680;27;20549;-69
2022/04/27 12:30:51;;;;;;;3.00;1.70;;;14.40;93.20;;;;;;5112026;27;20440;-69
2022/04/27 12:33:37;;;;;;;4.23;1.80;;;14.50;93.10;;;;;;5116557;27;20416;-70
2022/04/27 12:39:20;;;;;;;4.10;2.13;;;14.40;92.60;;;;;;5113106;27;20442;-69
2022/04/27 12:41:47;;;;;;;3.30;2.10;;;14.00;92.30;;;;;;5120863;27;20472;-70
2022/04/27 12:44:35;;;;;;;3.90;1.90;;;13.90;92.60;;;;;;5105004;27;20422;-69
2022/04/27 12:47:00;;;;;;;3.13;1.50;;;14.00;93.10;;;;;;5103551;27;20456;-69
2022/04/27 12:49:37;;;;;;;3.27;2.00;;;13.90;92.30;;;;;;5110831;27;20773;-69
2022/04/27 12:52:33;;;;;;;5.10;1.50;;;13.80;92.90;;;;;;5105182;27;20281;-70
2022/04/27 12:55:24;;;;;;;2.67;1.70;;;14.10;93.40;;;;;;5110174;27;20424;-70
2022/04/27 12:57:51;;;;;;;3.17;1.47;;;14.70;92.90;;;;;;5119409;27;20503;-69
2022/04/27 13:00:20;;;;;;;3.33;1.83;;;14.70;91.70;;;;;;5122303;27;20460;-70
2022/04/27 13:02:46;;;;;;;5.50;1.30;;;14.60;91.70;;;;;;5120200;27;20420;-70
2022/04/27 13:05:12;;;;;;;3.73;1.93;;;14.90;92.30;;;;;;5122626;27;20427;-70
2022/04/27 13:07:38;;;;;;;2.17;1.20;;;15.10;91.20;;;;;;5118430;28;20421;-70
2022/04/27 13:12:49;;;;;;;4.07;1.80;;;15.30;89.10;;;;;;5119002;28;20892;-70